createdAt,value
2023-03-25T00:00:21.228Z,97916.56
2023-03-25T00:02:53.047Z,97917.63
2023-03-25T00:05:23.481Z,97914.91
2023-03-25T00:07:54.180Z,97913.25
2023-03-25T00:10:22.863Z,97917.25
2023-03-25T00:12:52.907Z,97921.81
2023-03-25T00:15:23.857Z,97914.03
2023-03-25T00:17:52.566Z,97914.75
2023-03-25T00:20:21.519Z,97910.50
2023-03-25T00:22:50.235Z,97897.38
2023-03-25T00:25:20.718Z,97909.94
2023-03-25T00:27:51.184Z,97902.94
2023-03-25T00:30:22.321Z,97904.56
2023-03-25T00:32:52.870Z,97896.84
2023-03-25T00:35:24.179Z,97888.22
2023-03-25T00:37:57.713Z,97902.75
2023-03-25T00:40:28.508Z,97900.63
2023-03-25T00:42:58.032Z,97902.44
2023-03-25T00:45:28.160Z,97909.72
2023-03-25T00:47:57.174Z,97905.97
2023-03-25T00:50:26.379Z,97905.63
2023-03-25T00:52:55.251Z,97910.13
2023-03-25T00:55:24.123Z,97915.53
2023-03-25T00:57:52.884Z,97913.34
2023-03-25T01:00:21.878Z,97901.03
2023-03-25T01:02:54.353Z,97898.78
2023-03-25T01:05:23.123Z,97898.09
2023-03-25T01:07:53.270Z,97896.72
2023-03-25T01:10:22.321Z,97895.84
2023-03-25T01:12:51.042Z,97890.25
2023-03-25T01:15:20.432Z,97892.88
2023-03-25T01:17:49.238Z,97896.91
2023-03-25T01:20:19.687Z,97882.75
2023-03-25T01:22:48.441Z,97883.25
2023-03-25T01:25:17.281Z,97889.16
2023-03-25T01:27:45.977Z,97889.22
2023-03-25T01:30:16.620Z,97883.88
2023-03-25T01:32:46.068Z,97879.06
2023-03-25T01:35:14.936Z,97868.00
2023-03-25T01:37:46.916Z,97865.66
2023-03-25T01:40:21.716Z,97863.53
2023-03-25T01:42:51.029Z,97853.31
2023-03-25T01:45:30.841Z,97849.16
2023-03-25T01:48:11.428Z,97856.38
2023-03-25T01:50:46.324Z,97838.94
2023-03-25T01:53:17.381Z,97835.84
2023-03-25T01:55:47.905Z,97822.50
2023-03-25T01:58:20.372Z,97831.59
2023-03-25T02:00:52.025Z,97821.00
2023-03-25T02:03:25.509Z,97827.72
2023-03-25T02:06:03.911Z,97824.78
2023-03-25T02:08:39.781Z,97822.16
2023-03-25T02:11:10.317Z,97819.22
2023-03-25T02:13:41.559Z,97817.59
2023-03-25T02:16:28.358Z,97817.41
2023-03-25T02:19:47.737Z,97814.72
2023-03-25T02:23:08.696Z,97811.47
2023-03-25T02:26:21.296Z,97808.53
2023-03-25T02:29:02.239Z,97800.25
2023-03-25T02:31:54.186Z,97794.38
2023-03-25T02:34:57.781Z,97794.94
2023-03-25T02:38:13.559Z,97783.72
2023-03-25T02:40:58.709Z,97772.75
2023-03-25T02:43:33.785Z,97786.88
2023-03-25T02:46:09.848Z,97783.16
2023-03-25T02:48:46.204Z,97790.63
2023-03-25T02:51:22.561Z,97785.78
2023-03-25T02:53:56.426Z,97788.97
2023-03-25T02:56:29.506Z,97788.38
2023-03-25T02:58:59.094Z,97784.31
2023-03-25T03:01:29.103Z,97784.81
2023-03-25T03:03:58.496Z,97792.56
2023-03-25T03:06:29.585Z,97789.84
2023-03-25T03:09:28.637Z,97779.91
2023-03-25T03:12:22.075Z,97777.72
2023-03-25T03:15:13.118Z,97782.06
2023-03-25T03:17:51.582Z,97772.13
2023-03-25T03:20:33.154Z,97780.94
2023-03-25T03:23:11.077Z,97776.38
2023-03-25T03:25:52.843Z,97784.13
2023-03-25T03:28:32.043Z,97789.16
2023-03-25T03:31:08.724Z,97785.16
2023-03-25T03:33:50.790Z,97779.00
2023-03-25T03:36:26.622Z,97780.50
2023-03-25T03:39:02.325Z,97777.41
2023-03-25T03:41:37.464Z,97788.88
2023-03-25T03:44:10.098Z,97786.75
2023-03-25T03:46:46.001Z,97790.75
2023-03-25T03:49:20.035Z,97785.97
2023-03-25T03:51:54.523Z,97789.75
2023-03-25T03:54:29.381Z,97794.56
2023-03-25T03:57:04.375Z,97793.81
2023-03-25T03:59:47.763Z,97801.06
2023-03-25T04:02:27.500Z,97805.03
2023-03-25T04:05:00.907Z,97798.88
2023-03-25T04:07:39.204Z,97804.03
2023-03-25T04:10:16.785Z,97798.72
2023-03-25T04:12:53.864Z,97798.22
2023-03-25T04:15:23.271Z,97807.84
2023-03-25T04:17:52.082Z,97805.44
2023-03-25T04:20:29.981Z,97811.06
2023-03-25T04:22:58.806Z,97808.19
2023-03-25T04:25:27.722Z,97806.34
2023-03-25T04:27:59.047Z,97812.81
2023-03-25T04:30:29.656Z,97805.06
2023-03-25T04:33:00.680Z,97811.75
2023-03-25T04:35:33.194Z,97812.50
2023-03-25T04:38:02.334Z,97809.06
2023-03-25T04:40:31.559Z,97808.25
2023-03-25T04:43:01.863Z,97815.75
2023-03-25T04:45:30.776Z,97815.25
2023-03-25T04:47:59.616Z,97813.88
2023-03-25T04:50:31.698Z,97822.44
2023-03-25T04:53:01.341Z,97821.91
2023-03-25T04:55:30.211Z,97809.06
2023-03-25T04:58:00.584Z,97812.81
2023-03-25T05:00:29.594Z,97813.59
2023-03-25T05:03:01.987Z,97816.28
2023-03-25T05:05:30.823Z,97813.06
2023-03-25T05:07:59.785Z,97819.75
2023-03-25T05:10:30.528Z,97810.34
2023-03-25T05:13:07.022Z,97811.41
2023-03-25T05:15:39.786Z,97812.00
2023-03-25T05:18:10.735Z,97811.75
2023-03-25T05:20:39.999Z,97818.88
2023-03-25T05:23:12.225Z,97810.09
2023-03-25T05:25:41.473Z,97813.09
2023-03-25T05:28:14.274Z,97804.84
2023-03-25T05:30:46.898Z,97810.47
2023-03-25T05:33:19.195Z,97813.88
2023-03-25T05:35:49.407Z,97817.41
2023-03-25T05:38:19.150Z,97823.28
2023-03-25T05:40:48.632Z,97822.25
2023-03-25T05:43:22.940Z,97830.00
2023-03-25T05:45:52.027Z,97830.81
2023-03-25T05:48:21.015Z,97827.06
2023-03-25T05:50:49.725Z,97826.34
2023-03-25T05:53:18.350Z,97826.31
2023-03-25T05:55:51.346Z,97835.97
2023-03-25T05:58:25.193Z,97838.38
2023-03-25T06:00:54.673Z,97847.97
2023-03-25T06:03:26.252Z,97849.47
2023-03-25T06:05:56.905Z,97851.66
2023-03-25T06:08:27.089Z,97855.63
2023-03-25T06:11:00.771Z,97861.19
2023-03-25T06:13:34.537Z,97869.72
2023-03-25T06:16:04.095Z,97870.78
2023-03-25T06:18:34.501Z,97877.84
2023-03-25T06:21:04.224Z,97888.25
2023-03-25T06:23:36.060Z,97892.53
2023-03-25T06:26:05.546Z,97889.88
2023-03-25T06:28:35.773Z,97896.22
2023-03-25T06:31:09.268Z,97896.22
2023-03-25T06:33:43.157Z,97896.28
2023-03-25T06:36:15.577Z,97890.16
2023-03-25T06:38:45.915Z,97883.03
2023-03-25T06:41:21.065Z,97871.94
2023-03-25T06:43:59.781Z,97876.19
2023-03-25T06:46:47.420Z,97874.31
2023-03-25T06:49:25.941Z,97884.22
2023-03-25T06:51:57.056Z,97892.81
2023-03-25T06:54:27.501Z,97895.56
2023-03-25T06:56:56.570Z,97907.59
2023-03-25T06:59:27.245Z,97896.66
2023-03-25T07:01:56.041Z,97888.34
2023-03-25T07:04:33.437Z,97902.91
2023-03-25T07:07:03.697Z,97900.06
2023-03-25T07:09:33.528Z,97898.50
2023-03-25T07:12:02.383Z,97887.34
2023-03-25T07:14:32.623Z,97892.50
2023-03-25T07:17:01.340Z,97891.16
2023-03-25T07:19:30.066Z,97885.38
2023-03-25T07:21:58.774Z,97903.09
2023-03-25T07:24:27.932Z,97888.13
2023-03-25T07:26:56.731Z,97891.31
2023-03-25T07:29:28.473Z,97913.06
2023-03-25T07:31:58.939Z,97913.31
2023-03-25T07:34:28.019Z,97916.75
2023-03-25T07:36:56.960Z,97915.84
2023-03-25T07:39:26.259Z,97918.97
2023-03-25T07:41:55.870Z,97917.34
2023-03-25T07:44:44.528Z,97923.50
2023-03-25T07:47:14.603Z,97924.34
2023-03-25T07:49:44.148Z,97930.25
2023-03-25T07:52:12.780Z,97926.53
2023-03-25T07:54:41.692Z,97922.75
2023-03-25T07:57:10.396Z,97932.44
2023-03-25T07:59:39.071Z,97930.91
2023-03-25T08:02:08.504Z,97928.81
2023-03-25T08:04:39.274Z,97938.47
2023-03-25T08:07:08.694Z,97935.03
2023-03-25T08:09:37.717Z,97934.28
2023-03-25T08:12:07.193Z,97923.88
2023-03-25T08:14:36.183Z,97917.75
2023-03-25T08:17:06.710Z,97911.91
2023-03-25T08:19:37.232Z,97922.06
2023-03-25T08:22:05.990Z,97934.88
2023-03-25T08:24:35.900Z,97938.09
2023-03-25T08:27:13.925Z,97950.94
2023-03-25T08:29:45.256Z,97957.28
2023-03-25T08:32:14.108Z,97955.00
2023-03-25T08:34:44.290Z,97962.88
2023-03-25T08:37:13.874Z,97966.53
2023-03-25T08:39:48.010Z,97964.03
2023-03-25T08:42:16.831Z,97977.25
2023-03-25T08:44:45.819Z,97978.50
2023-03-25T08:47:14.582Z,97984.78
2023-03-25T08:49:44.818Z,97985.59
2023-03-25T08:52:13.885Z,97979.09
2023-03-25T08:54:42.946Z,97978.19
2023-03-25T08:57:11.890Z,97992.88
2023-03-25T08:59:41.141Z,97987.16
2023-03-25T09:02:12.723Z,97984.53
2023-03-25T09:04:41.579Z,97993.94
2023-03-25T09:07:20.491Z,97997.41
2023-03-25T09:10:04.249Z,98004.63
2023-03-25T09:12:33.517Z,97995.75
2023-03-25T09:15:02.303Z,98004.38
2023-03-25T09:17:31.015Z,98001.34
2023-03-25T09:20:00.227Z,97996.31
2023-03-25T09:22:30.326Z,97986.19
2023-03-25T09:24:59.197Z,97993.13
2023-03-25T09:27:27.952Z,97969.72
2023-03-25T09:29:57.243Z,97979.78
2023-03-25T09:32:26.861Z,97976.97
2023-03-25T09:34:55.564Z,97979.19
2023-03-25T09:37:25.929Z,97970.75
2023-03-25T09:39:56.546Z,97966.59
2023-03-25T09:42:41.513Z,97966.00
2023-03-25T09:45:27.441Z,97957.03
2023-03-25T09:48:04.234Z,97954.03
2023-03-25T09:50:37.469Z,97953.47
2023-03-25T09:53:19.485Z,97952.81
2023-03-25T09:55:51.797Z,97955.78
2023-03-25T09:58:35.964Z,97949.34
2023-03-25T10:01:27.848Z,97940.19
2023-03-25T10:04:31.245Z,97950.47
2023-03-25T10:07:21.965Z,97947.25
2023-03-25T10:10:00.878Z,97938.88
2023-03-25T10:12:46.377Z,97938.34
2023-03-25T10:15:28.100Z,97930.97
2023-03-25T10:18:28.593Z,97925.16
2023-03-25T10:21:08.264Z,97924.75
2023-03-25T10:23:43.978Z,97922.97
2023-03-25T10:26:21.791Z,97916.03
2023-03-25T10:28:58.173Z,97909.88
2023-03-25T10:31:34.334Z,97909.88
2023-03-25T10:34:08.077Z,97912.50
2023-03-25T10:36:44.274Z,97913.06
2023-03-25T10:39:20.268Z,97912.00
2023-03-25T10:41:54.299Z,97921.41
2023-03-25T10:44:29.042Z,97904.75
2023-03-25T10:47:05.947Z,97900.75
2023-03-25T10:49:37.783Z,97911.50
2023-03-25T10:52:07.183Z,97902.34
2023-03-25T10:54:41.423Z,97896.41
2023-03-25T10:57:18.933Z,97895.13
2023-03-25T11:00:02.278Z,97909.28
2023-03-25T11:02:33.330Z,97901.34
2023-03-25T11:05:08.245Z,97895.94
2023-03-25T11:07:41.919Z,97873.91
2023-03-25T11:10:21.737Z,97881.59
2023-03-25T11:12:58.499Z,97880.56
2023-03-25T11:15:34.790Z,97877.25
2023-03-25T11:18:12.735Z,97875.38
2023-03-25T11:20:49.259Z,97881.00
2023-03-25T11:23:28.993Z,97912.09
2023-03-25T11:26:13.533Z,97904.44
2023-03-25T11:28:46.292Z,97915.66
2023-03-25T11:31:21.516Z,97915.19
2023-03-25T11:34:15.601Z,97906.63
2023-03-25T11:36:55.222Z,97901.75
2023-03-25T11:39:33.763Z,97906.81
2023-03-25T11:42:16.309Z,97886.56
2023-03-25T11:44:52.582Z,97878.09
2023-03-25T11:47:28.787Z,97861.59
2023-03-25T11:49:57.545Z,97854.50
2023-03-25T11:52:33.503Z,97853.84
2023-03-25T11:55:03.140Z,97861.56
2023-03-25T11:57:40.902Z,97853.16
2023-03-25T12:00:31.697Z,97849.38
2023-03-25T12:03:20.170Z,97847.91
2023-03-25T12:06:01.732Z,97842.59
2023-03-25T12:08:44.708Z,97844.00
2023-03-25T12:11:19.736Z,97834.09
2023-03-25T12:14:11.574Z,97819.84
2023-03-25T12:16:51.496Z,97815.44
2023-03-25T12:19:35.687Z,97820.75
2023-03-25T12:22:20.107Z,97810.47
2023-03-25T12:25:08.465Z,97799.22
2023-03-25T12:27:58.542Z,97801.94
2023-03-25T12:30:53.993Z,97801.41
2023-03-25T12:33:48.122Z,97810.41
2023-03-25T12:36:40.517Z,97825.88
2023-03-25T12:39:43.774Z,97851.81
2023-03-25T12:42:34.004Z,97880.59
2023-03-25T12:45:25.491Z,97865.28
2023-03-25T12:48:02.991Z,97826.03
2023-03-25T12:50:49.733Z,97825.50
2023-03-25T12:53:41.758Z,97833.66
2023-03-25T12:56:43.827Z,97833.56
2023-03-25T12:59:49.544Z,97840.66
2023-03-25T13:02:49.307Z,97844.25
2023-03-25T13:05:24.930Z,97837.22
2023-03-25T13:07:59.580Z,97820.31
2023-03-25T13:10:37.352Z,97811.94
2023-03-25T13:13:14.177Z,97804.66
2023-03-25T13:15:48.972Z,97806.94
2023-03-25T13:18:25.287Z,97798.16
2023-03-25T13:21:09.126Z,97788.25
2023-03-25T13:23:46.440Z,97784.84
2023-03-25T13:26:23.215Z,97778.41
2023-03-25T13:28:58.305Z,97770.03
2023-03-25T13:31:32.411Z,97771.28
2023-03-25T13:34:22.879Z,97767.44
2023-03-25T13:37:08.432Z,97764.53
2023-03-25T13:39:53.949Z,97768.03
2023-03-25T13:42:32.812Z,97770.94
2023-03-25T13:45:05.445Z,97765.44
2023-03-25T13:47:43.583Z,97774.28
2023-03-25T13:50:25.546Z,97764.94
2023-03-25T13:53:04.652Z,97761.34
2023-03-25T13:55:40.861Z,97756.97
2023-03-25T13:59:02.300Z,97762.69
2023-03-25T14:02:29.049Z,97761.00
2023-03-25T14:05:33.559Z,97766.13
2023-03-25T14:08:40.040Z,97759.88
2023-03-25T14:11:25.526Z,97756.75
2023-03-25T14:14:01.868Z,97764.47
2023-03-25T14:16:37.689Z,97754.56
2023-03-25T14:19:14.397Z,97758.00
2023-03-25T14:21:48.676Z,97754.13
2023-03-25T14:24:26.490Z,97746.97
2023-03-25T14:27:00.713Z,97752.94
2023-03-25T14:29:40.508Z,97763.31
2023-03-25T14:32:36.519Z,97839.75
2023-03-25T14:35:59.014Z,97903.06
2023-03-25T14:38:53.843Z,97907.19
2023-03-25T14:42:01.852Z,97892.94
2023-03-25T14:44:34.264Z,97891.59
2023-03-25T14:47:28.756Z,97877.13
2023-03-25T14:50:07.203Z,97883.00
2023-03-25T14:52:43.739Z,97876.03
2023-03-25T14:55:20.260Z,97870.66
2023-03-25T14:57:52.593Z,97862.38
2023-03-25T15:00:29.840Z,97856.22
2023-03-25T15:03:06.678Z,97835.03
2023-03-25T15:05:38.360Z,97834.25
2023-03-25T15:08:18.081Z,97817.63
2023-03-25T15:10:52.814Z,97809.78
2023-03-25T15:13:28.706Z,97808.41
2023-03-25T15:16:04.307Z,97809.41
2023-03-25T15:19:15.078Z,97807.22
2023-03-25T15:22:20.369Z,97803.03
2023-03-25T15:25:01.300Z,97797.69
2023-03-25T15:28:11.003Z,97796.66
2023-03-25T15:31:20.152Z,97802.59
2023-03-25T15:34:16.827Z,97801.78
2023-03-25T15:37:08.105Z,97810.09
2023-03-25T15:39:55.831Z,97804.19
2023-03-25T15:42:51.554Z,97798.81
2023-03-25T15:45:42.445Z,97806.88
2023-03-25T15:48:52.689Z,97817.88
2023-03-25T15:51:51.732Z,97812.22
2023-03-25T15:54:43.111Z,97819.22
2023-03-25T15:57:25.696Z,97834.22
2023-03-25T16:00:09.565Z,97843.88
2023-03-25T16:02:50.932Z,97846.31
2023-03-25T16:05:23.864Z,97848.19
2023-03-25T16:07:53.999Z,97859.97
2023-03-25T16:10:32.478Z,97854.88
2023-03-25T16:13:05.091Z,97854.63
2023-03-25T16:15:37.543Z,97853.81
2023-03-25T16:18:11.869Z,97850.88
2023-03-25T16:20:42.364Z,97845.22
2023-03-25T16:23:21.642Z,97849.78
2023-03-25T16:25:53.989Z,97850.88
2023-03-25T16:28:29.838Z,97854.06
2023-03-25T16:30:58.587Z,97855.16
2023-03-25T16:33:31.038Z,97857.28
2023-03-25T16:36:06.286Z,97853.81
2023-03-25T16:38:35.574Z,97855.66
2023-03-25T16:41:12.517Z,97855.13
2023-03-25T16:43:42.253Z,97857.56
2023-03-25T16:46:15.996Z,97863.72
2023-03-25T16:48:53.223Z,97857.81
2023-03-25T16:51:29.379Z,97855.94
2023-03-25T16:54:00.399Z,97854.31
2023-03-25T16:56:32.350Z,97854.56
2023-03-25T16:59:06.450Z,97852.91
2023-03-25T17:01:39.588Z,97853.44
2023-03-25T17:04:19.028Z,97852.91
2023-03-25T17:06:54.558Z,97853.38
2023-03-25T17:09:34.643Z,97858.16
2023-03-25T17:12:11.040Z,97857.09
2023-03-25T17:14:44.858Z,97856.03
2023-03-25T17:17:34.940Z,97860.06
2023-03-25T17:20:10.078Z,97850.16
2023-03-25T17:22:41.276Z,97858.91
2023-03-25T17:25:27.882Z,97861.03
2023-03-25T17:28:01.035Z,97861.59
2023-03-25T17:30:42.815Z,97854.34
2023-03-25T17:33:15.633Z,97866.47
2023-03-25T17:35:47.854Z,97871.28
2023-03-25T17:38:28.491Z,97871.88
2023-03-25T17:41:03.529Z,97867.50
2023-03-25T17:43:36.659Z,97869.34
2023-03-25T17:46:07.945Z,97873.84
2023-03-25T17:48:37.337Z,97876.53
2023-03-25T17:51:06.676Z,97872.47
2023-03-25T17:53:36.710Z,97864.72
2023-03-25T17:56:06.817Z,97857.75
2023-03-25T17:58:35.715Z,97861.16
2023-03-25T18:01:04.781Z,97871.63
2023-03-25T18:03:36.145Z,97874.31
2023-03-25T18:06:05.486Z,97867.81
2023-03-25T18:08:35.836Z,97862.44
2023-03-25T18:11:04.800Z,97867.31
2023-03-25T18:13:33.578Z,97865.56
2023-03-25T18:16:02.730Z,97871.47
2023-03-25T18:18:32.072Z,97875.19
2023-03-25T18:21:03.777Z,97881.22
2023-03-25T18:23:32.927Z,97887.31
2023-03-25T18:26:04.906Z,97899.59
2023-03-25T18:28:36.267Z,97897.53
2023-03-25T18:31:06.264Z,97899.03
2023-03-25T18:33:35.218Z,97906.34
2023-03-25T18:36:04.212Z,97905.97
2023-03-25T18:38:34.345Z,97900.63
2023-03-25T18:41:05.269Z,97895.06
2023-03-25T18:43:34.338Z,97906.34
2023-03-25T18:46:04.373Z,97905.06
2023-03-25T18:48:33.779Z,97903.47
2023-03-25T18:51:02.781Z,97904.06
2023-03-25T18:53:31.858Z,97906.22
2023-03-25T18:56:04.950Z,97903.00
2023-03-25T18:58:37.265Z,97897.38
2023-03-25T19:01:07.756Z,97906.47
2023-03-25T19:03:41.900Z,97893.06
2023-03-25T19:06:14.256Z,97888.56
2023-03-25T19:08:44.556Z,97884.31
2023-03-25T19:11:21.867Z,97884.84
2023-03-25T19:14:04.386Z,97891.22
2023-03-25T19:16:33.600Z,97887.47
2023-03-25T19:19:12.264Z,97894.38
2023-03-25T19:21:43.870Z,97901.38
2023-03-25T19:24:13.585Z,97895.53
2023-03-25T19:26:45.072Z,97901.44
2023-03-25T19:29:17.574Z,97888.06
2023-03-25T19:31:47.648Z,97899.28
2023-03-25T19:34:18.284Z,97904.69
2023-03-25T19:36:48.437Z,97918.59
2023-03-25T19:39:18.964Z,97936.31
2023-03-25T19:41:51.735Z,97933.88
2023-03-25T19:44:21.793Z,97944.91
2023-03-25T19:46:51.348Z,97942.44
2023-03-25T19:49:36.414Z,97964.06
2023-03-25T19:52:09.945Z,97972.06
2023-03-25T19:54:45.283Z,97965.00
2023-03-25T19:57:18.102Z,97961.66
2023-03-25T19:59:48.397Z,97938.84
2023-03-25T20:02:20.066Z,97930.34
2023-03-25T20:04:50.830Z,97931.47
2023-03-25T20:07:21.799Z,97925.97
2023-03-25T20:09:55.348Z,97917.47
2023-03-25T20:12:40.019Z,97907.88
2023-03-25T20:15:21.599Z,97904.09
2023-03-25T20:18:19.187Z,97903.56
2023-03-25T20:20:54.502Z,97905.22
2023-03-25T20:23:30.932Z,97895.34
2023-03-25T20:26:12.926Z,97901.22
2023-03-25T20:28:46.705Z,97913.72
2023-03-25T20:31:26.204Z,97917.47
2023-03-25T20:34:15.250Z,97921.97
2023-03-25T20:36:44.502Z,97929.47
2023-03-25T20:39:16.573Z,97921.97
2023-03-25T20:41:46.111Z,97905.59
2023-03-25T20:44:16.808Z,97906.41
2023-03-25T20:46:46.927Z,97899.69
2023-03-25T20:49:27.404Z,97895.88
2023-03-25T20:51:57.778Z,97897.94
2023-03-25T20:54:37.419Z,97882.94
2023-03-25T20:57:07.675Z,97886.69
2023-03-25T20:59:38.052Z,97884.97
2023-03-25T21:02:06.984Z,97884.22
2023-03-25T21:04:37.012Z,97874.31
2023-03-25T21:07:07.779Z,97873.25
2023-03-25T21:09:54.799Z,97871.22
2023-03-25T21:12:32.874Z,97865.88
2023-03-25T21:15:13.218Z,97880.78
2023-03-25T21:17:42.480Z,97877.56
2023-03-25T21:20:13.067Z,97884.22
2023-03-25T21:22:44.574Z,97891.38
2023-03-25T21:25:16.965Z,97897.91
2023-03-25T21:27:46.866Z,97894.78
2023-03-25T21:30:17.550Z,97885.22
2023-03-25T21:32:46.203Z,97884.22
2023-03-25T21:35:14.959Z,97881.47
2023-03-25T21:37:44.272Z,97881.75
2023-03-25T21:40:14.705Z,97879.34
2023-03-25T21:42:46.240Z,97875.34
2023-03-25T21:45:18.557Z,97885.22
2023-03-25T21:47:53.579Z,97877.81
2023-03-25T21:50:23.129Z,97874.75
2023-03-25T21:52:52.036Z,97864.16
2023-03-25T21:55:22.426Z,97867.06
2023-03-25T21:57:51.536Z,97863.84
2023-03-25T22:00:24.016Z,97879.88
2023-03-25T22:02:58.712Z,97883.41
2023-03-25T22:05:32.230Z,97879.91
2023-03-25T22:08:01.530Z,97878.06
2023-03-25T22:10:30.807Z,97871.72
2023-03-25T22:13:00.252Z,97888.28
2023-03-25T22:15:31.891Z,97884.25
2023-03-25T22:18:00.733Z,97874.63
2023-03-25T22:20:29.532Z,97881.09
2023-03-25T22:22:58.170Z,97892.25
2023-03-25T22:25:26.893Z,97885.31
2023-03-25T22:27:55.634Z,97879.47
2023-03-25T22:30:24.543Z,97879.47
2023-03-25T22:32:54.699Z,97886.16
2023-03-25T22:35:23.897Z,97878.97
2023-03-25T22:37:55.496Z,97881.34
2023-03-25T22:40:25.287Z,97874.19
2023-03-25T22:42:54.299Z,97873.13
2023-03-25T22:45:23.889Z,97880.63
2023-03-25T22:47:54.329Z,97879.94
2023-03-25T22:50:23.074Z,97878.06
2023-03-25T22:52:51.712Z,97872.50
2023-03-25T22:55:20.536Z,97875.19
2023-03-25T22:57:49.257Z,97877.59
2023-03-25T23:00:19.703Z,97868.19
2023-03-25T23:02:49.352Z,97865.78
2023-03-25T23:05:21.721Z,97872.22
2023-03-25T23:07:50.499Z,97871.16
2023-03-25T23:10:20.287Z,97870.69
2023-03-25T23:12:50.492Z,97875.78
2023-03-25T23:15:19.821Z,97870.22
2023-03-25T23:17:49.561Z,97872.03
2023-03-25T23:20:20.073Z,97872.22
2023-03-25T23:22:49.072Z,97865.25
2023-03-25T23:25:17.979Z,97870.38
2023-03-25T23:27:47.891Z,97873.84
2023-03-25T23:30:19.772Z,97866.06
2023-03-25T23:32:49.180Z,97871.31
2023-03-25T23:35:21.414Z,97878.00
2023-03-25T23:37:53.581Z,97884.41
2023-03-25T23:40:23.008Z,97875.28
2023-03-25T23:42:51.930Z,97875.34
2023-03-25T23:45:20.709Z,97878.59
2023-03-25T23:47:49.497Z,97883.09
2023-03-25T23:50:19.894Z,97892.69
2023-03-25T23:52:48.613Z,97888.44
2023-03-25T23:55:17.926Z,97891.31
2023-03-25T23:57:46.554Z,97883.94
